Time;durP1;ratioP1;P1;durP2;ratioP2;P2;SDS_P1;SDS_P2;PMS_P1;PMS_P2;Temp;Humidity;BMP_temperature;BMP_pressure;BME280_temperature;BME280_humidity;BME280_pressure;Samples;Min_cycle;Max_cycle;Signal;HPM_P1;HPM_P2
2023/12/16 00:00:31;;;;;;;0.93;0.93;;;6.50;99.90;;;;;;5020382;28;20164;-73
2023/12/16 00:02:56;;;;;;;0.65;0.65;;;6.50;99.90;;;;;;5023539;28;20053;-72
2023/12/16 00:05:24;;;;;;;0.63;0.63;;;6.50;99.90;;;;;;5022086;28;20061;-72
2023/12/16 00:07:49;;;;;;;0.70;0.70;;;6.50;99.90;;;;;;5023124;28;20057;-73
2023/12/16 00:10:16;;;;;;;0.73;0.60;;;6.50;99.90;;;;;;5020915;28;20466;-73
2023/12/16 00:12:42;;;;;;;0.75;0.75;;;6.50;99.90;;;;;;5021841;28;20061;-73
2023/12/16 00:15:10;;;;;;;1.42;0.98;;;6.50;99.90;;;;;;5024267;28;20137;-73
2023/12/16 00:17:36;;;;;;;0.68;0.68;;;6.50;99.90;;;;;;5019688;28;21310;-73
2023/12/16 00:20:03;;;;;;;0.70;0.70;;;6.50;99.90;;;;;;5022853;28;20057;-72
2023/12/16 00:22:29;;;;;;;2.90;1.13;;;6.50;99.90;;;;;;5009361;28;20407;-72
2023/12/16 00:24:55;;;;;;;0.50;0.50;;;6.50;99.90;;;;;;5019665;28;20069;-72
2023/12/16 00:27:21;;;;;;;0.60;0.60;;;6.50;99.90;;;;;;5018809;28;20141;-73
2023/12/16 00:29:46;;;;;;;2.38;1.17;;;6.50;99.90;;;;;;5017763;28;20052;-73
2023/12/16 00:32:12;;;;;;;0.50;0.50;;;6.50;99.90;;;;;;5010804;28;20049;-72
2023/12/16 00:34:38;;;;;;;0.70;0.70;;;6.50;99.90;;;;;;5022340;28;20120;-73
2023/12/16 00:37:06;;;;;;;0.75;0.75;;;6.50;99.90;;;;;;5033401;28;20042;-73
2023/12/16 00:39:32;;;;;;;0.60;0.60;;;6.50;99.90;;;;;;5015782;28;20053;-72
2023/12/16 00:41:58;;;;;;;0.70;0.70;;;6.50;99.90;;;;;;5021555;28;20052;-72
2023/12/16 00:44:24;;;;;;;2.03;0.70;;;6.50;99.90;;;;;;5014550;28;20139;-72
2023/12/16 00:46:50;;;;;;;1.75;1.65;;;6.50;99.90;;;;;;5013686;28;20046;-72
2023/12/16 00:49:15;;;;;;;0.60;0.60;;;6.50;99.90;;;;;;5011562;28;20046;-73
2023/12/16 00:51:41;;;;;;;0.60;0.60;;;6.50;99.90;;;;;;5018125;28;20042;-73
2023/12/16 00:54:09;;;;;;;0.60;0.60;;;6.50;99.90;;;;;;5020877;28;20766;-72
2023/12/16 00:56:34;;;;;;;0.77;0.77;;;6.50;99.90;;;;;;5020442;28;20049;-72
2023/12/16 00:59:00;;;;;;;0.50;0.50;;;6.40;99.90;;;;;;5018898;28;20049;-72
2023/12/16 01:01:25;;;;;;;0.63;0.63;;;6.50;99.90;;;;;;5018130;28;20050;-72
2023/12/16 01:03:51;;;;;;;1.40;0.82;;;6.40;99.90;;;;;;5021371;28;20046;-72
2023/12/16 01:06:17;;;;;;;0.80;0.80;;;6.40;99.90;;;;;;5021794;28;20041;-72
2023/12/16 01:08:43;;;;;;;1.25;1.25;;;6.40;99.90;;;;;;5020511;28;20057;-73
2023/12/16 01:11:12;;;;;;;0.50;0.50;;;6.40;99.90;;;;;;5020234;28;20072;-72
2023/12/16 01:13:38;;;;;;;2.42;0.82;;;6.40;99.90;;;;;;5026336;28;20049;-73
2023/12/16 01:16:04;;;;;;;0.45;0.45;;;6.40;99.90;;;;;;5005158;28;20475;-72
2023/12/16 01:18:29;;;;;;;1.42;0.90;;;6.30;99.90;;;;;;5024349;28;20102;-72
2023/12/16 01:20:55;;;;;;;0.60;0.60;;;6.40;99.90;;;;;;5024748;28;20049;-72
2023/12/16 01:23:21;;;;;;;0.77;0.77;;;6.30;99.90;;;;;;5027396;28;20092;-72
2023/12/16 01:25:47;;;;;;;0.50;0.50;;;6.30;99.90;;;;;;5022347;28;20111;-73
2023/12/16 01:28:13;;;;;;;0.50;0.50;;;6.30;99.90;;;;;;5023817;28;20053;-73
2023/12/16 01:30:39;;;;;;;1.38;1.25;;;6.30;99.90;;;;;;5028317;28;20056;-72
2023/12/16 01:33:05;;;;;;;0.60;0.60;;;6.30;99.90;;;;;;5026150;28;20052;-73
2023/12/16 01:35:31;;;;;;;0.50;0.50;;;6.20;99.90;;;;;;5024636;28;20507;-72
2023/12/16 01:37:56;;;;;;;0.65;0.65;;;6.20;99.90;;;;;;5017850;28;20056;-72
2023/12/16 01:40:22;;;;;;;0.80;0.80;;;6.20;99.90;;;;;;5020205;28;20054;-72
2023/12/16 01:42:48;;;;;;;0.80;0.80;;;6.10;99.90;;;;;;5024212;28;20049;-73
2023/12/16 01:45:16;;;;;;;1.05;1.02;;;6.10;99.90;;;;;;5026596;28;20473;-73
2023/12/16 01:47:42;;;;;;;0.98;0.88;;;6.10;99.90;;;;;;5023749;28;20118;-73
2023/12/16 01:50:10;;;;;;;0.80;0.80;;;6.10;99.90;;;;;;5024986;28;20499;-73
2023/12/16 01:52:36;;;;;;;0.88;0.88;;;6.00;99.90;;;;;;5026035;28;20092;-72
2023/12/16 01:55:02;;;;;;;0.70;0.70;;;6.00;99.90;;;;;;5021313;28;20073;-72
2023/12/16 01:57:28;;;;;;;0.60;0.52;;;6.00;99.90;;;;;;4998148;28;20513;-72
2023/12/16 01:59:54;;;;;;;0.60;0.60;;;5.90;99.90;;;;;;5024925;28;20046;-72
2023/12/16 02:02:20;;;;;;;1.67;1.58;;;5.90;99.90;;;;;;5014639;28;20077;-72
2023/12/16 02:04:47;;;;;;;0.50;0.50;;;5.90;99.90;;;;;;5019157;28;20449;-73
2023/12/16 02:07:13;;;;;;;0.70;0.70;;;5.80;99.90;;;;;;5017743;28;20056;-73
2023/12/16 02:09:38;;;;;;;0.75;0.75;;;5.80;99.90;;;;;;5016278;28;20042;-73
2023/12/16 02:12:04;;;;;;;0.50;0.50;;;5.70;99.90;;;;;;5015675;28;20050;-73
2023/12/16 02:14:31;;;;;;;0.57;0.57;;;5.70;99.90;;;;;;5022594;28;20112;-73
2023/12/16 02:16:57;;;;;;;0.50;0.50;;;5.70;99.90;;;;;;5021901;28;20042;-73
2023/12/16 02:19:25;;;;;;;0.80;0.80;;;5.60;99.90;;;;;;5026659;28;20045;-73
2023/12/16 02:21:51;;;;;;;;;;;5.60;99.90;;;;;;5016048;28;20049;-73
2023/12/16 02:24:17;;;;;;;0.95;0.95;;;5.60;99.90;;;;;;5013258;28;19929;-74
2023/12/16 02:26:42;;;;;;;1.95;1.38;;;5.50;99.90;;;;;;5020040;28;20054;-73
2023/12/16 02:29:08;;;;;;;0.80;0.80;;;5.50;99.90;;;;;;5008187;28;20046;-73
2023/12/16 02:31:33;;;;;;;0.50;0.50;;;5.50;99.90;;;;;;5017402;28;20037;-73
2023/12/16 02:33:59;;;;;;;0.52;0.52;;;5.50;99.90;;;;;;5019821;28;20041;-73
2023/12/16 02:36:25;;;;;;;0.65;0.65;;;5.40;99.90;;;;;;5018519;28;20049;-72
2023/12/16 02:38:50;;;;;;;0.68;0.68;;;5.40;99.90;;;;;;5023706;28;20072;-73
2023/12/16 02:41:16;;;;;;;0.60;0.60;;;5.40;99.90;;;;;;5015972;28;20054;-73
2023/12/16 02:43:42;;;;;;;0.50;0.50;;;5.40;99.90;;;;;;5020441;28;20046;-73
2023/12/16 02:46:09;;;;;;;0.50;0.50;;;5.40;99.90;;;;;;5015946;28;20037;-73
2023/12/16 02:48:34;;;;;;;0.57;0.57;;;5.30;99.90;;;;;;5018474;28;20063;-73
2023/12/16 02:51:00;;;;;;;0.60;0.60;;;5.30;99.90;;;;;;5013858;28;20042;-73
2023/12/16 02:53:25;;;;;;;0.50;0.50;;;5.30;99.90;;;;;;5010159;28;20736;-72
2023/12/16 02:55:51;;;;;;;1.50;1.08;;;5.30;99.90;;;;;;5022340;28;20143;-73
2023/12/16 02:58:17;;;;;;;0.47;0.47;;;5.20;99.90;;;;;;5014915;28;20049;-73
2023/12/16 03:00:42;;;;;;;0.80;0.80;;;5.30;99.90;;;;;;5016900;28;20135;-72
2023/12/16 03:03:08;;;;;;;0.50;0.50;;;5.20;99.90;;;;;;5022269;28;20695;-73
2023/12/16 03:05:34;;;;;;;0.85;0.70;;;5.20;99.90;;;;;;5007840;28;20052;-72
2023/12/16 03:07:59;;;;;;;2.85;0.98;;;5.20;99.90;;;;;;5015359;28;20048;-73
2023/12/16 03:10:25;;;;;;;0.75;0.75;;;5.20;99.90;;;;;;5023712;28;20076;-72
2023/12/16 03:12:51;;;;;;;0.77;0.77;;;5.10;99.90;;;;;;5024120;28;20046;-73
2023/12/16 03:15:16;;;;;;;0.50;0.50;;;5.10;99.90;;;;;;5024152;28;20049;-73
2023/12/16 03:17:43;;;;;;;0.60;0.60;;;5.10;99.90;;;;;;5026405;28;20107;-72
2023/12/16 03:20:10;;;;;;;0.50;0.50;;;5.10;99.90;;;;;;5021671;28;20041;-72
2023/12/16 03:22:35;;;;;;;2.05;0.60;;;5.10;99.90;;;;;;5019376;28;20054;-73
2023/12/16 03:25:01;;;;;;;0.60;0.60;;;5.00;99.90;;;;;;5004200;28;20049;-73
2023/12/16 03:27:26;;;;;;;0.60;0.60;;;5.00;99.90;;;;;;5025528;28;20056;-73
2023/12/16 03:29:52;;;;;;;0.50;0.50;;;4.90;99.90;;;;;;5018056;28;20037;-72
2023/12/16 03:32:18;;;;;;;0.85;0.85;;;4.90;99.90;;;;;;5025351;28;20049;-73
2023/12/16 03:34:43;;;;;;;0.75;0.70;;;4.90;99.90;;;;;;5024830;28;20056;-72
2023/12/16 03:37:09;;;;;;;0.40;0.40;;;4.90;99.90;;;;;;5024857;28;20072;-72
2023/12/16 03:39:34;;;;;;;0.60;0.60;;;4.90;99.90;;;;;;5017722;28;20071;-73
2023/12/16 03:42:01;;;;;;;3.40;0.95;;;4.80;99.90;;;;;;5023939;28;20049;-72
2023/12/16 03:44:26;;;;;;;0.47;0.47;;;4.80;99.90;;;;;;5019974;28;20144;-72
2023/12/16 03:46:52;;;;;;;0.50;0.50;;;4.80;99.90;;;;;;5017582;28;20057;-72
2023/12/16 03:49:18;;;;;;;0.50;0.50;;;4.80;99.90;;;;;;5017894;28;20057;-72
2023/12/16 03:51:43;;;;;;;1.10;0.93;;;4.80;99.90;;;;;;5021612;28;20044;-73
2023/12/16 03:54:10;;;;;;;0.50;0.50;;;4.70;99.90;;;;;;5021109;28;20703;-72
2023/12/16 03:56:36;;;;;;;3.53;0.98;;;4.70;99.90;;;;;;5019408;28;20053;-72
2023/12/16 03:59:02;;;;;;;1.00;0.98;;;4.70;99.90;;;;;;5022611;28;20053;-72
2023/12/16 04:01:27;;;;;;;0.60;0.60;;;4.70;99.90;;;;;;5016197;28;20038;-72
2023/12/16 04:03:53;;;;;;;0.50;0.50;;;4.70;99.90;;;;;;5019002;28;20052;-72
2023/12/16 04:06:18;;;;;;;0.60;0.60;;;4.70;99.90;;;;;;5021281;28;20512;-73
2023/12/16 04:08:44;;;;;;;0.70;0.70;;;4.70;99.90;;;;;;5023567;28;20057;-73
2023/12/16 04:11:09;;;;;;;0.50;0.50;;;4.70;99.90;;;;;;5023503;28;20057;-73
2023/12/16 04:13:35;;;;;;;0.65;0.65;;;4.70;99.90;;;;;;5015926;28;20054;-73
2023/12/16 04:16:03;;;;;;;0.77;0.77;;;4.70;99.90;;;;;;5021964;28;20632;-72
2023/12/16 04:18:29;;;;;;;0.60;0.60;;;4.70;99.90;;;;;;5015875;28;20124;-73
2023/12/16 04:20:55;;;;;;;0.55;0.55;;;4.70;99.90;;;;;;5025634;28;20115;-73
2023/12/16 04:23:21;;;;;;;0.70;0.70;;;4.70;99.90;;;;;;5020596;28;20475;-73
2023/12/16 04:25:46;;;;;;;0.80;0.80;;;4.70;99.90;;;;;;5018406;28;20061;-73
2023/12/16 04:28:12;;;;;;;0.73;0.73;;;4.70;99.90;;;;;;5022915;28;20384;-73
2023/12/16 04:30:37;;;;;;;0.65;0.65;;;4.70;99.90;;;;;;5017542;28;20711;-73
2023/12/16 04:33:03;;;;;;;0.40;0.40;;;4.70;99.90;;;;;;5021175;28;20094;-72
2023/12/16 04:35:29;;;;;;;1.20;1.10;;;4.70;99.90;;;;;;5020258;28;20076;-72
2023/12/16 04:37:54;;;;;;;0.68;0.68;;;4.70;99.90;;;;;;5019235;28;20042;-73
2023/12/16 04:40:21;;;;;;;0.70;0.70;;;4.70;99.90;;;;;;5011789;28;20129;-73
2023/12/16 04:42:49;;;;;;;0.50;0.50;;;4.70;99.90;;;;;;5016036;28;20050;-72
2023/12/16 04:45:15;;;;;;;0.88;0.88;;;4.80;99.90;;;;;;5014854;28;20053;-72
2023/12/16 04:47:41;;;;;;;0.40;0.40;;;4.80;99.90;;;;;;5017088;28;20142;-73
2023/12/16 04:50:07;;;;;;;0.65;0.65;;;4.80;99.90;;;;;;5022950;28;20046;-72
2023/12/16 04:52:32;;;;;;;0.65;0.65;;;4.80;99.90;;;;;;5026497;28;20061;-72
2023/12/16 04:54:58;;;;;;;0.50;0.50;;;4.80;99.90;;;;;;5027054;28;20410;-73
2023/12/16 04:57:23;;;;;;;0.73;0.73;;;4.80;99.90;;;;;;5024771;28;20107;-72
2023/12/16 04:59:49;;;;;;;0.50;0.50;;;4.90;99.90;;;;;;5027253;28;20049;-73
2023/12/16 05:02:14;;;;;;;1.10;1.10;;;4.90;99.90;;;;;;5026032;28;20049;-73
2023/12/16 05:04:40;;;;;;;0.57;0.57;;;4.90;99.90;;;;;;5027490;28;20038;-73
2023/12/16 05:07:05;;;;;;;0.55;0.55;;;4.90;99.90;;;;;;5026572;28;20030;-73
2023/12/16 05:09:31;;;;;;;1.20;1.10;;;4.90;99.90;;;;;;5027577;28;20123;-73
2023/12/16 05:11:57;;;;;;;1.20;1.10;;;4.90;99.90;;;;;;5025119;28;20227;-73
2023/12/16 05:14:22;;;;;;;0.60;0.60;;;4.90;99.90;;;;;;5025514;28;20053;-72
2023/12/16 05:16:48;;;;;;;0.52;0.52;;;4.80;99.90;;;;;;5025800;28;20061;-73
2023/12/16 05:19:14;;;;;;;0.65;0.65;;;4.90;99.90;;;;;;5024930;28;20120;-72
2023/12/16 05:21:39;;;;;;;0.70;0.60;;;4.90;99.90;;;;;;5025656;28;20134;-72
2023/12/16 05:24:05;;;;;;;0.52;0.52;;;4.90;99.90;;;;;;5026172;28;20060;-73
2023/12/16 05:26:31;;;;;;;0.38;0.38;;;4.90;99.90;;;;;;5024795;28;20144;-73
2023/12/16 05:28:57;;;;;;;0.82;0.73;;;4.90;99.90;;;;;;5021028;28;20053;-72
2023/12/16 05:31:22;;;;;;;0.50;0.50;;;4.90;99.90;;;;;;5023992;28;20127;-72
2023/12/16 05:33:48;;;;;;;0.93;0.93;;;4.90;99.90;;;;;;5022573;28;20482;-73
2023/12/16 05:36:14;;;;;;;1.90;1.00;;;4.90;99.90;;;;;;5023282;28;20080;-72
2023/12/16 05:38:40;;;;;;;0.60;0.60;;;4.90;99.90;;;;;;5025421;28;20107;-75
2023/12/16 05:41:06;;;;;;;0.80;0.80;;;4.90;99.90;;;;;;5022377;28;20066;-73
2023/12/16 05:43:32;;;;;;;0.60;0.60;;;4.90;99.90;;;;;;5025284;28;20045;-73
2023/12/16 05:45:58;;;;;;;1.08;1.00;;;4.90;99.90;;;;;;5026434;28;20042;-73
2023/12/16 05:48:23;;;;;;;0.73;0.73;;;4.90;99.90;;;;;;5022687;28;20045;-72
2023/12/16 05:50:49;;;;;;;1.10;0.82;;;4.90;99.90;;;;;;5023731;28;20041;-72
2023/12/16 05:53:15;;;;;;;1.40;0.88;;;4.90;99.90;;;;;;5013324;28;20104;-72
2023/12/16 05:55:40;;;;;;;1.02;0.93;;;4.90;99.90;;;;;;5018450;28;20104;-72
2023/12/16 05:58:06;;;;;;;1.83;1.73;;;4.80;99.90;;;;;;5019550;28;20052;-73
2023/12/16 06:00:32;;;;;;;2.58;1.67;;;4.80;99.90;;;;;;5014467;28;20142;-72
2023/12/16 06:02:57;;;;;;;1.30;1.20;;;4.80;99.90;;;;;;5020235;28;20048;-73
2023/12/16 06:05:23;;;;;;;2.05;1.27;;;4.80;99.90;;;;;;5025759;28;20084;-73
2023/12/16 06:07:49;;;;;;;7.80;1.75;;;4.80;99.90;;;;;;5020159;28;20044;-72
2023/12/16 06:10:15;;;;;;;0.90;0.90;;;4.80;99.90;;;;;;5026230;28;20410;-73
2023/12/16 06:12:40;;;;;;;0.85;0.85;;;4.80;99.90;;;;;;5024996;28;20380;-73
2023/12/16 06:15:07;;;;;;;0.60;0.60;;;4.80;99.90;;;;;;5026970;28;20107;-73
2023/12/16 06:17:32;;;;;;;0.80;0.80;;;4.80;99.90;;;;;;5024888;28;20061;-73
2023/12/16 06:19:58;;;;;;;1.50;1.40;;;4.80;99.90;;;;;;5025878;28;20128;-73
2023/12/16 06:22:24;;;;;;;0.63;0.63;;;4.70;99.90;;;;;;5025313;28;20096;-73
2023/12/16 06:24:49;;;;;;;0.85;0.70;;;4.70;99.90;;;;;;5015462;28;20084;-73
2023/12/16 06:27:15;;;;;;;1.10;1.10;;;4.70;99.90;;;;;;5022746;28;20503;-73
2023/12/16 06:29:41;;;;;;;0.98;0.98;;;4.70;99.90;;;;;;5021711;28;20046;-72
2023/12/16 06:32:07;;;;;;;1.40;1.00;;;4.70;99.90;;;;;;5020472;28;20054;-73
2023/12/16 06:34:33;;;;;;;2.15;1.48;;;4.70;99.90;;;;;;5024876;28;20052;-73
2023/12/16 06:36:58;;;;;;;1.02;0.93;;;4.70;99.90;;;;;;5019610;28;20418;-73
2023/12/16 06:39:24;;;;;;;0.70;0.70;;;4.70;99.90;;;;;;5023610;28;20061;-73
2023/12/16 06:41:50;;;;;;;1.25;1.13;;;4.70;99.90;;;;;;5018863;28;20049;-73
2023/12/16 06:44:15;;;;;;;0.60;0.60;;;4.80;99.90;;;;;;5025234;28;20046;-73
2023/12/16 06:46:41;;;;;;;1.65;1.05;;;4.80;99.90;;;;;;5024527;28;20053;-73
2023/12/16 06:49:07;;;;;;;0.63;0.63;;;4.80;99.90;;;;;;5023520;28;20046;-73
2023/12/16 06:51:32;;;;;;;0.40;0.40;;;4.80;99.90;;;;;;5023450;28;20136;-73
2023/12/16 06:53:58;;;;;;;0.40;0.40;;;4.80;99.90;;;;;;5021681;28;20414;-73
2023/12/16 06:56:24;;;;;;;0.98;0.98;;;4.90;99.90;;;;;;5024135;28;20046;-73
2023/12/16 06:58:50;;;;;;;0.90;0.90;;;4.90;99.90;;;;;;5020540;28;20048;-73
2023/12/16 07:01:15;;;;;;;0.80;0.80;;;5.00;99.90;;;;;;5019330;28;20052;-73
2023/12/16 07:03:41;;;;;;;0.70;0.70;;;5.00;99.90;;;;;;5014705;28;20049;-73
2023/12/16 07:06:08;;;;;;;0.50;0.50;;;5.00;99.90;;;;;;5015612;28;20128;-73
2023/12/16 07:08:36;;;;;;;1.00;0.90;;;5.10;99.90;;;;;;5025725;28;20073;-73
2023/12/16 07:11:03;;;;;;;0.63;0.63;;;5.10;99.90;;;;;;5020486;28;20056;-73
2023/12/16 07:13:29;;;;;;;0.65;0.65;;;5.10;99.90;;;;;;5018678;28;20050;-73
2023/12/16 07:15:55;;;;;;;0.40;0.40;;;5.20;99.90;;;;;;5020441;28;20038;-73
2023/12/16 07:18:21;;;;;;;2.13;1.50;;;5.20;99.90;;;;;;5014049;28;20527;-73
2023/12/16 07:20:47;;;;;;;2.05;0.88;;;5.20;99.90;;;;;;5019710;28;20049;-73
2023/12/16 07:23:13;;;;;;;3.03;1.08;;;5.30;99.90;;;;;;5018202;28;20064;-73
2023/12/16 07:25:40;;;;;;;0.60;0.60;;;5.30;99.90;;;;;;5021151;28;20058;-73
2023/12/16 07:28:06;;;;;;;1.25;1.25;;;5.40;99.90;;;;;;5017241;28;20053;-73
2023/12/16 07:30:32;;;;;;;0.60;0.60;;;5.40;99.90;;;;;;5020201;28;20045;-73
2023/12/16 07:32:57;;;;;;;0.90;0.90;;;5.40;99.90;;;;;;5014058;28;20053;-73
2023/12/16 07:35:23;;;;;;;1.27;1.02;;;5.50;99.90;;;;;;5015964;28;20050;-73
2023/12/16 07:37:49;;;;;;;1.10;0.90;;;5.50;99.90;;;;;;5019536;28;20126;-73
2023/12/16 07:40:15;;;;;;;0.50;0.50;;;5.50;99.90;;;;;;5019876;28;20124;-73
2023/12/16 07:42:41;;;;;;;0.70;0.70;;;5.60;99.90;;;;;;5020979;28;20049;-73
2023/12/16 07:45:07;;;;;;;1.35;1.25;;;5.60;99.90;;;;;;5021670;28;20053;-73
2023/12/16 07:47:33;;;;;;;1.42;1.40;;;5.60;99.90;;;;;;5021569;28;20045;-73
2023/12/16 07:49:59;;;;;;;0.98;0.93;;;5.70;99.90;;;;;;5017535;28;20053;-73
2023/12/16 07:52:25;;;;;;;1.38;1.05;;;5.70;99.90;;;;;;5023139;28;20491;-73
2023/12/16 07:54:50;;;;;;;1.95;1.27;;;5.70;99.90;;;;;;5021190;28;20128;-73
2023/12/16 07:57:16;;;;;;;1.33;1.30;;;5.80;99.90;;;;;;5017970;28;20049;-73
2023/12/16 07:59:43;;;;;;;1.83;1.60;;;5.80;99.90;;;;;;5018169;28;20073;-73
2023/12/16 08:02:09;;;;;;;0.50;0.50;;;5.80;99.90;;;;;;5019746;28;20682;-73
2023/12/16 08:04:35;;;;;;;0.60;0.60;;;5.90;99.90;;;;;;5017400;28;20070;-73
2023/12/16 08:07:03;;;;;;;1.13;1.13;;;5.90;99.90;;;;;;5010060;28;20112;-73
2023/12/16 08:09:31;;;;;;;1.27;1.27;;;5.90;99.90;;;;;;5018347;28;20081;-73
2023/12/16 08:11:58;;;;;;;0.70;0.70;;;5.90;99.90;;;;;;5016309;28;20157;-73
2023/12/16 08:14:24;;;;;;;0.55;0.55;;;5.90;99.90;;;;;;5015478;28;20088;-73
2023/12/16 08:16:50;;;;;;;2.33;1.40;;;6.00;99.90;;;;;;4997829;28;20045;-73
2023/12/16 08:19:15;;;;;;;3.65;1.77;;;6.00;99.90;;;;;;5018494;28;20045;-73
2023/12/16 08:21:41;;;;;;;2.58;1.05;;;6.00;99.90;;;;;;5021154;28;20136;-73
2023/12/16 08:24:06;;;;;;;1.05;1.05;;;6.10;99.90;;;;;;5022300;28;20081;-73
2023/12/16 08:26:32;;;;;;;1.42;1.33;;;6.10;99.90;;;;;;5010632;28;20055;-73
2023/12/16 08:28:58;;;;;;;2.20;1.48;;;6.10;99.90;;;;;;5016125;28;20076;-73
2023/12/16 08:31:23;;;;;;;0.80;0.80;;;6.10;99.90;;;;;;5022278;28;20392;-73
2023/12/16 08:33:49;;;;;;;0.85;0.85;;;6.10;99.90;;;;;;5025435;28;20263;-73
2023/12/16 08:36:15;;;;;;;1.10;1.00;;;6.10;99.90;;;;;;5024859;28;20049;-74
2023/12/16 08:38:40;;;;;;;0.60;0.60;;;6.10;99.90;;;;;;5024786;28;20041;-73
2023/12/16 08:41:08;;;;;;;0.70;0.70;;;6.20;99.90;;;;;;5026094;28;20604;-73
2023/12/16 08:43:34;;;;;;;0.75;0.75;;;6.20;99.90;;;;;;5018799;28;20049;-74
2023/12/16 08:46:00;;;;;;;6.55;1.90;;;6.20;99.90;;;;;;5023246;28;20500;-72
2023/12/16 08:48:26;;;;;;;6.60;1.65;;;6.20;99.90;;;;;;4982132;28;20042;-73
2023/12/16 08:50:53;;;;;;;3.20;1.98;;;6.20;99.90;;;;;;5026360;28;20849;-73
2023/12/16 08:53:19;;;;;;;0.68;0.68;;;6.30;99.90;;;;;;5023103;28;20057;-73
2023/12/16 08:55:45;;;;;;;0.75;0.70;;;6.30;99.90;;;;;;5027882;28;20052;-73
2023/12/16 08:58:11;;;;;;;0.93;0.93;;;6.30;99.90;;;;;;5024022;28;20049;-73
2023/12/16 09:00:37;;;;;;;1.15;0.90;;;6.30;99.90;;;;;;5024614;28;20045;-73
2023/12/16 09:03:03;;;;;;;1.33;1.23;;;6.30;99.90;;;;;;5024360;28;20692;-73
2023/12/16 09:05:31;;;;;;;1.25;1.25;;;6.30;99.90;;;;;;5025069;28;20196;-73
2023/12/16 09:07:56;;;;;;;1.20;1.20;;;6.40;99.90;;;;;;5022133;28;20771;-73
2023/12/16 09:10:22;;;;;;;1.25;0.70;;;6.40;99.90;;;;;;5019800;28;20049;-73
2023/12/16 09:12:48;;;;;;;1.10;1.10;;;6.50;99.90;;;;;;5015816;28;20049;-73
2023/12/16 09:15:15;;;;;;;1.95;1.85;;;6.50;99.90;;;;;;5022995;28;20048;-73
2023/12/16 09:17:41;;;;;;;2.67;1.88;;;6.50;99.90;;;;;;5023274;28;20080;-73
2023/12/16 09:20:07;;;;;;;1.75;1.15;;;6.50;99.90;;;;;;5022428;28;20069;-73
2023/12/16 09:22:33;;;;;;;2.30;1.77;;;6.50;99.90;;;;;;5022170;28;20064;-73
2023/12/16 09:24:58;;;;;;;1.42;1.30;;;6.50;99.90;;;;;;5021099;28;20057;-73
2023/12/16 09:27:24;;;;;;;1.40;1.30;;;6.50;99.90;;;;;;5024587;28;20049;-73
2023/12/16 09:29:49;;;;;;;1.17;1.17;;;6.60;99.90;;;;;;5020768;28;20045;-73
2023/12/16 09:32:15;;;;;;;1.25;1.25;;;6.60;99.90;;;;;;5014245;28;20046;-73
2023/12/16 09:34:42;;;;;;;1.67;0.90;;;6.60;99.90;;;;;;5011034;28;20135;-72
2023/12/16 09:37:08;;;;;;;1.45;1.35;;;6.60;99.90;;;;;;5021790;28;20085;-73
2023/12/16 09:39:34;;;;;;;1.75;1.58;;;6.60;99.90;;;;;;5026042;28;20049;-73
2023/12/16 09:42:02;;;;;;;0.82;0.82;;;6.60;99.90;;;;;;5025521;28;20048;-73
2023/12/16 09:44:32;;;;;;;1.00;1.00;;;6.60;99.90;;;;;;5024622;28;20041;-73
2023/12/16 09:46:59;;;;;;;1.70;1.48;;;6.60;99.90;;;;;;5023762;28;20046;-73
2023/12/16 09:49:26;;;;;;;0.85;0.70;;;6.60;99.90;;;;;;5022607;28;20045;-73
2023/12/16 09:51:52;;;;;;;0.68;0.68;;;6.60;99.90;;;;;;5022243;28;20060;-73
2023/12/16 09:54:18;;;;;;;2.60;2.40;;;6.60;99.90;;;;;;5017355;28;20046;-73
2023/12/16 09:56:46;;;;;;;1.50;1.25;;;6.60;99.90;;;;;;5018342;28;20110;-73
2023/12/16 09:59:12;;;;;;;1.77;1.67;;;6.60;99.90;;;;;;5020849;28;20103;-73
2023/12/16 10:01:39;;;;;;;1.95;1.85;;;6.70;99.90;;;;;;5019983;28;20057;-73
2023/12/16 10:04:07;;;;;;;0.77;0.77;;;6.60;99.90;;;;;;5016775;28;21414;-73
2023/12/16 10:06:33;;;;;;;0.50;0.50;;;6.60;99.90;;;;;;5019448;28;20111;-73
2023/12/16 10:08:59;;;;;;;0.88;0.85;;;6.60;99.90;;;;;;5009607;28;20637;-73
2023/12/16 10:11:25;;;;;;;0.68;0.68;;;6.60;99.90;;;;;;5021761;28;20087;-73
2023/12/16 10:14:00;;;;;;;0.60;0.60;;;6.60;99.90;;;;;;5020546;28;20141;-73
2023/12/16 10:16:26;;;;;;;1.55;1.45;;;6.70;99.90;;;;;;5023059;28;20052;-73
2023/12/16 10:18:53;;;;;;;1.83;1.50;;;6.70;99.90;;;;;;5019781;28;20046;-73
2023/12/16 10:21:30;;;;;;;0.77;0.77;;;6.70;99.90;;;;;;5023800;28;20099;-73
2023/12/16 10:24:00;;;;;;;1.83;1.73;;;6.70;99.90;;;;;;4997778;28;20049;-73
2023/12/16 10:26:27;;;;;;;2.10;1.75;;;6.70;99.90;;;;;;5009249;28;20842;-73
2023/12/16 10:28:54;;;;;;;1.27;1.20;;;6.70;99.90;;;;;;5014773;28;20053;-73
2023/12/16 10:31:22;;;;;;;0.93;0.93;;;6.70;99.90;;;;;;5023622;28;20046;-73
2023/12/16 10:33:48;;;;;;;1.25;1.15;;;6.80;99.90;;;;;;5015600;28;20132;-73
2023/12/16 10:36:15;;;;;;;0.80;0.80;;;6.80;99.90;;;;;;5024524;28;20060;-73
2023/12/16 10:38:40;;;;;;;2.60;1.30;;;6.80;99.90;;;;;;5022058;28;20045;-73
2023/12/16 10:41:06;;;;;;;1.45;1.35;;;6.80;99.90;;;;;;5023203;28;20050;-73
2023/12/16 10:43:32;;;;;;;0.95;0.95;;;6.80;99.90;;;;;;5009248;28;20128;-73
2023/12/16 10:46:03;;;;;;;1.30;1.30;;;6.90;99.90;;;;;;5021420;28;20049;-73
2023/12/16 10:48:33;;;;;;;1.40;1.30;;;6.90;99.90;;;;;;5017545;28;20102;-73
2023/12/16 10:51:02;;;;;;;1.08;1.02;;;6.90;99.90;;;;;;5004695;28;20052;-73
2023/12/16 10:53:43;;;;;;;1.20;1.05;;;6.90;99.90;;;;;;5014899;28;20061;-73
2023/12/16 10:56:29;;;;;;;3.70;1.58;;;6.90;99.90;;;;;;5009489;28;20046;-73
2023/12/16 10:59:06;;;;;;;4.45;1.90;;;6.90;99.90;;;;;;5015184;28;20080;-73
2023/12/16 11:01:39;;;;;;;5.88;1.80;;;6.90;99.90;;;;;;5019139;28;20046;-73
2023/12/16 11:04:14;;;;;;;3.60;2.05;;;7.00;99.90;;;;;;5024036;28;20112;-73
2023/12/16 11:06:51;;;;;;;1.60;1.50;;;7.00;99.90;;;;;;5086730;27;20449;-71
2023/12/16 11:09:18;;;;;;;2.95;1.83;;;7.00;99.90;;;;;;5080386;28;20417;-72
2023/12/16 11:11:45;;;;;;;2.85;2.65;;;7.10;99.90;;;;;;5073829;28;20041;-72
2023/12/16 11:14:11;;;;;;;1.92;1.73;;;7.10;99.90;;;;;;5070809;28;20525;-71
2023/12/16 11:16:59;;;;;;;2.63;1.33;;;7.00;99.90;;;;;;5077559;28;20055;-71
2023/12/16 11:19:28;;;;;;;;;;;7.10;99.90;;;;;;5080553;28;20036;-71
2023/12/16 11:21:53;;;;;;;1.48;1.38;;;7.10;99.90;;;;;;5075911;28;20011;-72
2023/12/16 11:24:19;;;;;;;1.60;1.50;;;7.10;99.90;;;;;;5072251;28;20147;-71
2023/12/16 11:26:50;;;;;;;3.63;2.58;;;7.20;99.90;;;;;;5083210;28;20049;-71
2023/12/16 11:29:23;;;;;;;1.90;1.70;;;7.20;99.90;;;;;;5071039;28;20045;-71
2023/12/16 11:31:57;;;;;;;1.70;1.60;;;7.20;99.90;;;;;;5070934;28;20481;-71
2023/12/16 11:34:38;;;;;;;1.92;1.80;;;7.20;99.90;;;;;;5063964;28;20315;-71
2023/12/16 11:37:04;;;;;;;1.98;1.63;;;7.30;99.90;;;;;;5099927;27;20573;-71
2023/12/16 11:39:41;;;;;;;2.60;2.22;;;7.30;99.90;;;;;;5074730;28;20045;-72
2023/12/16 11:42:10;;;;;;;7.05;2.05;;;7.30;99.90;;;;;;5074635;28;20455;-74
2023/12/16 11:44:54;;;;;;;1.83;1.73;;;7.30;99.90;;;;;;5062508;28;20059;-72
2023/12/16 11:47:25;;;;;;;3.13;1.98;;;7.40;99.90;;;;;;5069423;28;20044;-71
2023/12/16 11:49:55;;;;;;;0.80;0.80;;;7.40;99.90;;;;;;5070668;28;20088;-72
2023/12/16 11:52:23;;;;;;;1.38;1.38;;;7.40;99.90;;;;;;5082420;28;20059;-71
2023/12/16 11:54:56;;;;;;;1.95;1.77;;;7.40;99.90;;;;;;5082300;28;20055;-71
2023/12/16 11:57:23;;;;;;;2.95;2.70;;;7.40;99.90;;;;;;5080286;28;20044;-72
2023/12/16 11:59:54;;;;;;;1.85;1.60;;;7.50;99.90;;;;;;5074763;28;20063;-71
2023/12/16 12:02:20;;;;;;;3.67;3.40;;;7.50;99.90;;;;;;5076936;28;20048;-71
2023/12/16 12:04:46;;;;;;;2.10;1.63;;;7.50;99.90;;;;;;5073784;28;20061;-72
2023/12/16 12:07:14;;;;;;;2.67;1.95;;;7.50;99.90;;;;;;5069166;28;20059;-71
2023/12/16 12:09:44;;;;;;;3.47;1.27;;;7.50;99.90;;;;;;5069892;28;20040;-71
2023/12/16 12:12:11;;;;;;;1.92;1.42;;;7.60;99.90;;;;;;5068009;28;20052;-72
2023/12/16 12:14:46;;;;;;;2.15;1.83;;;7.60;99.90;;;;;;5071676;28;20052;-72
2023/12/16 12:17:12;;;;;;;2.53;2.17;;;7.60;99.90;;;;;;5063860;28;20048;-71
2023/12/16 12:19:38;;;;;;;1.65;1.55;;;7.60;99.90;;;;;;5057203;28;20053;-72
2023/12/16 12:22:06;;;;;;;5.93;3.40;;;7.60;99.90;;;;;;5058748;28;20048;-72
2023/12/16 12:24:31;;;;;;;1.95;1.85;;;7.60;99.90;;;;;;5059842;28;20101;-71
2023/12/16 12:26:57;;;;;;;1.65;1.42;;;7.60;99.90;;;;;;5054533;28;20056;-71
2023/12/16 12:29:23;;;;;;;1.92;1.83;;;7.60;99.90;;;;;;5056819;28;20080;-71
2023/12/16 12:31:49;;;;;;;1.80;1.70;;;7.70;99.90;;;;;;5059750;28;20053;-71
2023/12/16 12:34:21;;;;;;;1.13;0.95;;;7.70;99.90;;;;;;5055486;28;20393;-71
2023/12/16 12:36:47;;;;;;;2.53;2.38;;;7.70;99.90;;;;;;5053781;28;20102;-71
2023/12/16 12:39:19;;;;;;;1.25;1.25;;;7.70;99.90;;;;;;5058371;28;20040;-71
2023/12/16 12:42:02;;;;;;;3.83;1.85;;;7.70;99.90;;;;;;5054584;28;20055;-72
2023/12/16 12:44:30;;;;;;;1.58;1.48;;;7.70;99.90;;;;;;5058637;28;20062;-71
2023/12/16 12:46:56;;;;;;;2.53;2.33;;;7.70;99.90;;;;;;5058520;28;20044;-71
2023/12/16 12:49:30;;;;;;;2.10;1.63;;;7.70;99.90;;;;;;5053761;28;20054;-71
2023/12/16 12:51:56;;;;;;;1.52;1.42;;;7.70;99.90;;;;;;5055720;28;21567;-73
2023/12/16 12:54:22;;;;;;;1.10;1.10;;;7.70;99.90;;;;;;5052616;28;20036;-73